createdAt,value
2018-12-13T00:00:25.837Z,21.40
2018-12-13T00:02:54.334Z,20.30
2018-12-13T00:05:22.862Z,21.33
2018-12-13T00:07:51.335Z,20.90
2018-12-13T00:10:19.840Z,22.37
2018-12-13T00:12:48.302Z,21.03
2018-12-13T00:15:19.165Z,22.90
2018-12-13T00:17:47.622Z,22.97
2018-12-13T00:20:16.070Z,22.00
2018-12-13T00:22:44.636Z,22.53
2018-12-13T00:25:13.131Z,22.93
2018-12-13T00:27:43.312Z,24.10
2018-12-13T00:30:14.227Z,24.77
2018-12-13T00:32:43.435Z,24.33
2018-12-13T00:35:12.757Z,24.30
2018-12-13T00:37:41.477Z,22.83
2018-12-13T00:40:11.152Z,23.87
2018-12-13T00:42:39.632Z,26.10
2018-12-13T00:45:08.233Z,25.60
2018-12-13T00:47:36.710Z,24.17
2018-12-13T00:50:05.279Z,24.30
2018-12-13T00:52:33.796Z,25.17
2018-12-13T00:55:02.264Z,22.73
2018-12-13T00:57:30.782Z,25.13
2018-12-13T00:59:59.387Z,25.00
2018-12-13T01:02:27.852Z,22.50
2018-12-13T01:04:56.328Z,22.13
2018-12-13T01:07:24.824Z,23.00
2018-12-13T01:09:53.287Z,23.73
2018-12-13T01:12:21.777Z,22.67
2018-12-13T01:14:50.301Z,24.10
2018-12-13T01:17:18.775Z,22.90
2018-12-13T01:19:47.413Z,23.17
2018-12-13T01:22:15.917Z,22.33
2018-12-13T01:24:44.426Z,23.93
2018-12-13T01:27:12.888Z,23.17
2018-12-13T01:29:41.375Z,22.40
2018-12-13T01:32:09.836Z,24.30
2018-12-13T01:34:38.326Z,22.73
2018-12-13T01:37:06.851Z,24.00
2018-12-13T01:39:35.317Z,21.90
2018-12-13T01:42:03.782Z,21.03
2018-12-13T01:44:32.280Z,21.20
2018-12-13T01:47:00.746Z,22.70
2018-12-13T01:49:29.221Z,21.53
2018-12-13T01:51:57.748Z,25.20
2018-12-13T01:54:26.263Z,21.67
2018-12-13T01:56:54.744Z,22.57
2018-12-13T01:59:23.253Z,23.17
2018-12-13T02:01:51.705Z,20.03
2018-12-13T02:04:20.211Z,21.90
2018-12-13T02:06:48.743Z,22.73
2018-12-13T02:09:17.247Z,23.53
2018-12-13T02:11:45.719Z,22.93
2018-12-13T02:14:14.258Z,24.07
2018-12-13T02:16:43.735Z,24.50
2018-12-13T02:19:12.255Z,25.10
2018-12-13T02:21:40.742Z,26.33
2018-12-13T02:24:09.247Z,26.33
2018-12-13T02:26:37.797Z,26.30
2018-12-13T02:29:08.202Z,25.97
2018-12-13T02:31:36.795Z,32.87
2018-12-13T02:34:05.635Z,25.90
2018-12-13T02:36:34.140Z,25.97
2018-12-13T02:39:02.756Z,25.20
2018-12-13T02:41:31.287Z,25.93
2018-12-13T02:43:59.888Z,26.43
2018-12-13T02:46:28.391Z,24.77
2018-12-13T02:49:06.732Z,24.40
2018-12-13T02:51:35.328Z,25.00
2018-12-13T02:54:03.936Z,24.50
2018-12-13T02:56:32.537Z,24.60
2018-12-13T02:59:00.996Z,25.90
2018-12-13T03:01:29.487Z,25.63
2018-12-13T03:03:57.976Z,24.90
2018-12-13T03:06:26.549Z,24.13
2018-12-13T03:08:54.980Z,23.17
2018-12-13T03:11:24.342Z,23.30
2018-12-13T03:13:52.839Z,25.00
2018-12-13T03:16:21.417Z,24.67
2018-12-13T03:18:49.916Z,23.13
2018-12-13T03:21:18.402Z,24.73
2018-12-13T03:23:46.866Z,23.17
2018-12-13T03:26:15.398Z,22.23
2018-12-13T03:28:43.975Z,23.40
2018-12-13T03:31:12.466Z,23.33
2018-12-13T03:33:40.984Z,23.37
2018-12-13T03:36:09.563Z,25.20
2018-12-13T03:38:38.058Z,25.23
2018-12-13T03:41:06.731Z,23.97
2018-12-13T03:43:35.222Z,23.03
2018-12-13T03:46:03.685Z,22.67
2018-12-13T03:48:32.183Z,22.07
2018-12-13T03:51:00.716Z,23.77
2018-12-13T03:53:29.177Z,23.33
2018-12-13T03:55:57.673Z,23.50
2018-12-13T03:58:26.128Z,22.17
2018-12-13T04:00:54.650Z,24.10
2018-12-13T04:03:23.111Z,20.80
2018-12-13T04:05:51.600Z,23.83
2018-12-13T04:08:20.153Z,22.00
2018-12-13T04:10:48.660Z,23.83
2018-12-13T04:13:17.132Z,24.23
2018-12-13T04:15:45.713Z,22.63
2018-12-13T04:18:14.231Z,24.13
2018-12-13T04:20:42.841Z,23.10
2018-12-13T04:23:11.417Z,23.27
2018-12-13T04:25:39.889Z,25.23
2018-12-13T04:28:08.391Z,24.70
2018-12-13T04:30:36.864Z,25.23
2018-12-13T04:33:05.526Z,24.97
2018-12-13T04:35:33.991Z,24.30
2018-12-13T04:38:02.548Z,23.73
2018-12-13T04:40:34.012Z,22.90
2018-12-13T04:43:02.502Z,22.60
2018-12-13T04:45:34.050Z,24.27
2018-12-13T04:48:02.532Z,24.13
2018-12-13T04:50:31.068Z,24.73
2018-12-13T04:52:59.583Z,24.43
2018-12-13T04:55:28.068Z,22.80
2018-12-13T04:57:56.620Z,26.60
2018-12-13T05:00:25.284Z,24.20
2018-12-13T05:02:53.773Z,25.03
2018-12-13T05:05:22.299Z,24.63
2018-12-13T05:07:50.805Z,25.67
2018-12-13T05:10:30.540Z,24.40
2018-12-13T05:12:59.057Z,25.43
2018-12-13T05:15:34.009Z,24.87
2018-12-13T05:18:02.528Z,24.73
2018-12-13T05:20:31.008Z,25.93
2018-12-13T05:22:59.472Z,25.37
2018-12-13T05:25:28.038Z,26.63
2018-12-13T05:27:56.559Z,26.57
2018-12-13T05:30:25.064Z,27.70
2018-12-13T05:32:53.560Z,27.07
2018-12-13T05:35:22.065Z,27.93
2018-12-13T05:37:50.600Z,28.67
2018-12-13T05:40:19.071Z,28.57
2018-12-13T05:42:47.565Z,27.03
2018-12-13T05:45:16.661Z,27.73
2018-12-13T05:47:45.179Z,28.23
2018-12-13T05:50:13.803Z,25.50
2018-12-13T05:52:42.329Z,22.20
2018-12-13T05:55:10.856Z,25.27
2018-12-13T05:57:39.427Z,26.57
2018-12-13T06:00:09.638Z,27.13
2018-12-13T06:02:38.170Z,27.80
2018-12-13T06:05:07.326Z,26.77
2018-12-13T06:07:35.938Z,28.53
2018-12-13T06:10:05.304Z,25.80
2018-12-13T06:12:34.542Z,25.67
2018-12-13T06:15:03.040Z,26.33
2018-12-13T06:17:31.653Z,26.87
2018-12-13T06:20:06.994Z,26.90
2018-12-13T06:22:35.476Z,25.63
2018-12-13T06:25:04.317Z,26.13
2018-12-13T06:27:32.938Z,23.77
2018-12-13T06:30:07.262Z,25.87
2018-12-13T06:32:32.021Z,24.40
2018-12-13T06:35:00.501Z,24.73
2018-12-13T06:37:28.967Z,25.87
2018-12-13T06:39:57.489Z,25.62
2018-12-13T06:42:25.963Z,25.57
2018-12-13T06:44:54.481Z,25.67
2018-12-13T06:47:23.032Z,25.80
2018-12-13T06:49:51.508Z,26.50
2018-12-13T06:52:20.082Z,26.37
2018-12-13T06:54:48.602Z,26.03
2018-12-13T06:57:17.179Z,25.33
2018-12-13T06:59:45.722Z,27.60
2018-12-13T07:02:14.198Z,25.90
2018-12-13T07:04:42.674Z,25.00
2018-12-13T07:07:11.129Z,25.50
2018-12-13T07:09:39.600Z,25.27
2018-12-13T07:12:08.098Z,25.27
2018-12-13T07:14:36.552Z,23.80
2018-12-13T07:17:05.088Z,26.87
2018-12-13T07:19:33.612Z,27.47
2018-12-13T07:22:02.082Z,24.00
2018-12-13T07:24:30.609Z,25.33
2018-12-13T07:26:59.093Z,27.47
2018-12-13T07:29:27.568Z,28.70
2018-12-13T07:31:56.097Z,25.40
2018-12-13T07:34:24.579Z,24.23
2018-12-13T07:36:53.152Z,24.33
2018-12-13T07:39:21.693Z,23.73
2018-12-13T07:41:50.173Z,25.80
2018-12-13T07:44:18.645Z,25.57
2018-12-13T07:46:47.197Z,23.30
2018-12-13T07:49:15.677Z,25.63
2018-12-13T07:51:44.164Z,26.57
2018-12-13T07:54:12.760Z,25.07
2018-12-13T07:56:41.243Z,23.87
2018-12-13T07:59:09.732Z,25.73
2018-12-13T08:01:38.238Z,24.80
2018-12-13T08:04:06.754Z,23.60
2018-12-13T08:06:35.234Z,25.53
2018-12-13T08:09:05.441Z,24.13
2018-12-13T08:11:33.970Z,24.23
2018-12-13T08:14:02.458Z,24.50
2018-12-13T08:16:30.984Z,24.30
2018-12-13T08:18:59.592Z,24.83
2018-12-13T08:21:28.091Z,25.33
2018-12-13T08:23:56.573Z,24.60
2018-12-13T08:26:25.072Z,25.23
2018-12-13T08:28:53.561Z,26.70
2018-12-13T08:31:22.123Z,26.07
2018-12-13T08:33:50.593Z,25.60
2018-12-13T08:36:19.081Z,27.43
2018-12-13T08:38:47.585Z,26.07
2018-12-13T08:41:16.181Z,23.83
2018-12-13T08:43:44.669Z,26.80
2018-12-13T08:46:13.182Z,27.47
2018-12-13T08:48:41.625Z,25.70
2018-12-13T08:51:10.100Z,30.67
2018-12-13T08:53:38.635Z,29.33
2018-12-13T08:56:07.102Z,28.53
2018-12-13T08:58:35.568Z,29.50
2018-12-13T09:01:04.148Z,28.37
2018-12-13T09:03:32.638Z,29.37
2018-12-13T09:06:01.127Z,29.60
2018-12-13T09:08:33.597Z,30.83
2018-12-13T09:11:00.287Z,31.80
2018-12-13T09:13:28.869Z,30.70
2018-12-13T09:15:57.334Z,33.73
2018-12-13T09:18:25.801Z,32.37
2018-12-13T09:20:54.335Z,30.93
2018-12-13T09:23:22.833Z,30.10
2018-12-13T09:25:51.459Z,30.00
2018-12-13T09:28:20.090Z,31.27
2018-12-13T09:30:49.625Z,30.83
2018-12-13T09:33:18.191Z,34.23
2018-12-13T09:35:46.678Z,33.70
2018-12-13T09:38:15.158Z,32.23
2018-12-13T09:40:43.644Z,33.83
2018-12-13T09:43:12.207Z,32.37
2018-12-13T09:45:40.686Z,31.33
2018-12-13T09:48:09.193Z,31.40
2018-12-13T09:50:37.699Z,30.17
2018-12-13T09:53:06.194Z,31.63
2018-12-13T09:55:34.653Z,33.20
2018-12-13T09:58:03.354Z,29.57
2018-12-13T10:00:31.846Z,32.33
2018-12-13T10:03:00.396Z,29.10
2018-12-13T10:05:28.938Z,30.60
2018-12-13T10:07:57.390Z,29.97
2018-12-13T10:10:25.865Z,32.80
2018-12-13T10:12:54.401Z,32.07
2018-12-13T10:15:22.906Z,34.17
2018-12-13T10:17:51.382Z,33.67
2018-12-13T10:20:19.886Z,33.37
2018-12-13T10:22:48.330Z,33.40
2018-12-13T10:25:16.995Z,32.73
2018-12-13T10:27:45.514Z,32.60
2018-12-13T10:30:14.111Z,32.30
2018-12-13T10:32:42.597Z,32.73
2018-12-13T10:35:22.384Z,32.57
2018-12-13T10:37:56.460Z,31.33
2018-12-13T10:40:30.701Z,31.13
2018-12-13T10:42:59.177Z,32.90
2018-12-13T10:45:39.088Z,32.67
2018-12-13T10:48:13.138Z,27.90
2018-12-13T10:50:47.391Z,33.17
2018-12-13T10:53:15.869Z,28.90
2018-12-13T10:55:50.038Z,30.50
2018-12-13T10:58:24.044Z,31.37
2018-12-13T11:01:03.362Z,28.40
2018-12-13T11:03:37.693Z,27.70
2018-12-13T11:06:11.779Z,29.53
2018-12-13T11:08:40.243Z,26.60
2018-12-13T11:11:08.723Z,28.67
2018-12-13T11:13:37.210Z,27.23
2018-12-13T11:16:05.675Z,28.50
2018-12-13T11:18:34.181Z,30.90
2018-12-13T11:21:02.738Z,28.80
2018-12-13T11:23:36.946Z,28.37
2018-12-13T11:26:11.117Z,27.97
2018-12-13T11:28:49.789Z,30.43
2018-12-13T11:31:24.062Z,28.47
2018-12-13T11:33:52.552Z,29.23
2018-12-13T11:36:32.496Z,28.57
2018-12-13T11:39:06.689Z,27.57
2018-12-13T11:41:46.436Z,26.00
2018-12-13T11:44:20.474Z,24.90
2018-12-13T11:46:54.512Z,25.03
2018-12-13T11:49:22.977Z,24.60
2018-12-13T11:51:51.483Z,24.13
2018-12-13T11:54:30.406Z,31.42
2018-12-13T11:57:04.589Z,25.60
2018-12-13T11:59:38.718Z,35.70
2018-12-13T12:02:07.190Z,30.80
2018-12-13T12:04:35.830Z,26.33
2018-12-13T12:07:09.801Z,24.20
2018-12-13T12:09:38.289Z,24.03
2018-12-13T12:12:12.256Z,22.93
2018-12-13T12:14:46.297Z,19.70
2018-12-13T12:17:20.392Z,21.47
2018-12-13T12:19:54.503Z,19.83
2018-12-13T12:22:28.531Z,19.87
2018-12-13T12:24:57.054Z,19.70
2018-12-13T12:27:36.933Z,21.63
2018-12-13T12:30:11.583Z,22.13
2018-12-13T12:32:45.758Z,21.77
2018-12-13T12:35:25.613Z,26.47
2018-12-13T12:37:59.671Z,20.93
2018-12-13T12:40:33.629Z,20.73
2018-12-13T12:43:02.230Z,20.57
2018-12-13T12:45:36.396Z,20.73
2018-12-13T12:48:04.925Z,22.53
2018-12-13T12:50:33.454Z,20.57
2018-12-13T12:53:07.497Z,20.53
2018-12-13T12:55:41.566Z,18.73
2018-12-13T12:58:10.153Z,22.33
2018-12-13T13:00:38.681Z,19.83
2018-12-13T13:03:07.341Z,18.10
2018-12-13T13:05:36.225Z,16.37
2018-12-13T13:08:04.858Z,16.80
2018-12-13T13:10:33.372Z,17.47
2018-12-13T13:13:01.871Z,18.27
2018-12-13T13:15:30.419Z,16.87
2018-12-13T13:17:58.901Z,16.13
2018-12-13T13:20:27.479Z,18.17
2018-12-13T13:22:55.947Z,17.63
2018-12-13T13:25:24.446Z,18.07
2018-12-13T13:27:52.941Z,17.77
2018-12-13T13:30:21.457Z,16.40
2018-12-13T13:32:49.991Z,18.87
2018-12-13T13:35:18.481Z,18.03
2018-12-13T13:37:46.962Z,17.80
2018-12-13T13:40:15.450Z,18.00
2018-12-13T13:42:43.938Z,18.40
2018-12-13T13:45:12.448Z,19.43
2018-12-13T13:47:40.914Z,21.73
2018-12-13T13:50:09.416Z,20.20
2018-12-13T13:52:38.749Z,20.10
2018-12-13T13:55:07.355Z,19.67
2018-12-13T13:57:35.926Z,20.63
2018-12-13T14:00:05.691Z,19.37
2018-12-13T14:02:34.205Z,21.70
2018-12-13T14:05:02.849Z,22.13
2018-12-13T14:07:31.305Z,20.37
2018-12-13T14:09:59.768Z,20.30
2018-12-13T14:12:28.349Z,20.23
2018-12-13T14:14:56.797Z,19.13
2018-12-13T14:17:25.361Z,19.23
2018-12-13T14:19:53.853Z,18.30
2018-12-13T14:25:43.714Z,18.80
2018-12-13T14:28:12.218Z,19.67
2018-12-13T14:30:40.792Z,18.50
2018-12-13T14:33:09.334Z,18.40
2018-12-13T14:35:37.807Z,18.20
2018-12-13T14:38:06.402Z,18.93
2018-12-13T14:40:34.926Z,18.53
2018-12-13T14:43:03.546Z,18.07
2018-12-13T14:45:32.103Z,19.27
2018-12-13T14:48:00.574Z,17.70
2018-12-13T14:50:29.110Z,18.90
2018-12-13T14:52:57.760Z,17.63
2018-12-13T14:55:26.296Z,19.57
2018-12-13T14:57:54.894Z,19.17
2018-12-13T15:00:23.405Z,20.07
2018-12-13T15:02:51.941Z,18.27
2018-12-13T15:05:20.958Z,19.67
2018-12-13T15:07:49.585Z,19.40
2018-12-13T15:10:18.112Z,18.90
2018-12-13T15:12:46.635Z,18.80
2018-12-13T15:15:15.197Z,18.23
2018-12-13T15:17:44.012Z,20.07
2018-12-13T15:20:12.531Z,20.77
2018-12-13T15:22:41.169Z,19.90
2018-12-13T15:25:09.713Z,18.60
2018-12-13T15:27:38.586Z,18.13
2018-12-13T15:30:07.780Z,18.20
2018-12-13T15:32:36.397Z,18.53
2018-12-13T15:35:05.438Z,19.03
2018-12-13T15:37:33.998Z,17.87
2018-12-13T15:40:02.588Z,19.25
2018-12-13T15:42:37.849Z,17.23
2018-12-13T15:45:07.866Z,18.00
2018-12-13T15:47:36.517Z,17.37
2018-12-13T15:50:05.741Z,16.63
2018-12-13T15:52:34.410Z,17.40
2018-12-13T15:55:03.086Z,17.07
2018-12-13T15:57:31.732Z,17.83
2018-12-13T16:00:00.245Z,16.37
2018-12-13T16:02:28.839Z,17.97
2018-12-13T16:04:57.378Z,17.37
2018-12-13T16:07:25.858Z,15.57
2018-12-13T16:09:54.397Z,16.27
2018-12-13T16:12:23.149Z,17.27
2018-12-13T16:14:51.759Z,16.30
2018-12-13T16:17:20.296Z,16.53
2018-12-13T16:19:48.945Z,17.47
2018-12-13T16:22:17.482Z,18.73
2018-12-13T16:24:46.018Z,21.17
2018-12-13T16:27:14.747Z,18.00
2018-12-13T16:29:44.370Z,18.27
2018-12-13T16:32:13.008Z,17.23
2018-12-13T16:34:41.588Z,19.20
2018-12-13T16:37:10.169Z,18.60
2018-12-13T16:39:38.743Z,48.33
2018-12-13T16:42:07.351Z,20.80
2018-12-13T16:44:35.955Z,19.63
2018-12-13T16:47:04.473Z,18.93
2018-12-13T16:49:33.075Z,22.17
2018-12-13T16:52:02.686Z,23.83
2018-12-13T16:54:31.258Z,24.33
2018-12-13T16:56:59.845Z,20.23
2018-12-13T16:59:28.454Z,20.40
2018-12-13T17:01:57.018Z,20.07
2018-12-13T17:04:25.594Z,21.53
2018-12-13T17:06:56.053Z,23.30
2018-12-13T17:09:24.906Z,21.63
2018-12-13T17:11:53.614Z,27.70
2018-12-13T17:14:22.132Z,21.20
2018-12-13T17:16:51.683Z,21.07
2018-12-13T17:19:20.498Z,19.83
2018-12-13T17:21:49.614Z,21.63
2018-12-13T17:24:23.383Z,23.93
2018-12-13T17:26:55.116Z,19.80
2018-12-13T17:29:25.620Z,24.10
2018-12-13T17:31:55.574Z,23.97
2018-12-13T17:34:27.510Z,22.53
2018-12-13T17:36:56.357Z,22.30
2018-12-13T17:39:24.992Z,21.90
2018-12-13T17:41:53.630Z,23.47
2018-12-13T17:44:22.208Z,23.20
2018-12-13T17:46:50.851Z,22.53
2018-12-13T17:49:19.558Z,23.10
2018-12-13T17:51:48.052Z,22.57
2018-12-13T17:54:16.580Z,23.47
2018-12-13T17:56:45.240Z,24.90
2018-12-13T17:59:14.512Z,21.37
2018-12-13T18:01:43.266Z,21.27
2018-12-13T18:04:11.913Z,23.03
2018-12-13T18:06:40.720Z,22.50
2018-12-13T18:09:11.491Z,23.47
2018-12-13T18:11:45.848Z,23.90
2018-12-13T18:14:15.453Z,24.53
2018-12-13T18:16:53.402Z,25.07
2018-12-13T18:19:27.302Z,26.33
2018-12-13T18:21:57.202Z,25.07
2018-12-13T18:24:26.392Z,24.77
2018-12-13T18:26:55.214Z,25.00
2018-12-13T18:29:24.313Z,24.90
2018-12-13T18:31:53.229Z,31.05
2018-12-13T18:34:22.249Z,26.70
2018-12-13T18:36:50.997Z,25.90
2018-12-13T18:39:20.147Z,25.00
2018-12-13T18:41:48.911Z,24.80
2018-12-13T18:44:17.873Z,25.87
2018-12-13T18:46:49.188Z,25.37
2018-12-13T18:49:19.794Z,24.67
2018-12-13T18:51:58.377Z,25.97
2018-12-13T18:54:27.464Z,25.27
2018-12-13T18:56:58.509Z,25.30
2018-12-13T18:59:30.789Z,29.07
2018-12-13T19:02:10.340Z,27.13
2018-12-13T19:04:39.092Z,27.40
2018-12-13T19:07:12.721Z,27.03
2018-12-13T19:09:41.531Z,27.90
2018-12-13T19:12:12.048Z,28.70
2018-12-13T19:14:41.919Z,28.17
2018-12-13T19:17:10.793Z,24.93
2018-12-13T19:19:39.352Z,26.90
2018-12-13T19:22:07.878Z,25.37
2018-12-13T19:24:36.413Z,25.27
2018-12-13T19:27:05.048Z,26.13
2018-12-13T19:29:33.714Z,25.07
2018-12-13T19:32:02.225Z,26.67
2018-12-13T19:34:30.749Z,26.90
2018-12-13T19:36:59.447Z,24.70
2018-12-13T19:39:28.073Z,25.20
2018-12-13T19:41:56.638Z,26.70
2018-12-13T19:44:25.162Z,27.03
2018-12-13T19:46:53.770Z,24.37
2018-12-13T19:49:22.297Z,26.20
2018-12-13T19:51:51.186Z,25.37
2018-12-13T19:54:19.866Z,25.13
2018-12-13T19:56:48.491Z,25.10
2018-12-13T19:59:17.072Z,25.57
2018-12-13T20:01:45.624Z,28.10
2018-12-13T20:04:14.258Z,25.57
2018-12-13T20:06:42.839Z,25.63
2018-12-13T20:09:11.534Z,24.63
2018-12-13T20:11:40.111Z,25.30
2018-12-13T20:14:08.677Z,25.60
2018-12-13T20:16:37.288Z,28.03
2018-12-13T20:19:05.776Z,26.53
2018-12-13T20:21:34.399Z,23.43
2018-12-13T20:24:02.993Z,26.20
2018-12-13T20:26:31.985Z,26.93
2018-12-13T20:29:00.782Z,25.03
2018-12-13T20:31:29.465Z,23.97
2018-12-13T20:33:58.087Z,24.33
2018-12-13T20:36:26.767Z,25.33
2018-12-13T20:38:55.302Z,23.23
2018-12-13T20:41:23.857Z,26.00
2018-12-13T20:43:52.521Z,24.63
2018-12-13T20:46:21.024Z,25.33
2018-12-13T20:48:49.713Z,23.07
2018-12-13T20:51:18.361Z,25.30
2018-12-13T20:53:46.964Z,24.30
2018-12-13T20:56:15.563Z,24.27
2018-12-13T20:58:45.362Z,23.97
2018-12-13T21:01:14.037Z,23.50
2018-12-13T21:03:42.554Z,23.97
2018-12-13T21:06:11.940Z,22.87
2018-12-13T21:08:40.454Z,22.67
2018-12-13T21:11:09.034Z,23.03
2018-12-13T21:13:37.555Z,22.20
2018-12-13T21:16:06.100Z,23.13
2018-12-13T21:18:34.601Z,22.40
2018-12-13T21:21:06.087Z,21.50
2018-12-13T21:23:34.703Z,22.00
2018-12-13T21:26:03.367Z,21.80
2018-12-13T21:28:31.905Z,21.60
2018-12-13T21:31:00.433Z,19.30
2018-12-13T21:33:28.984Z,21.70
2018-12-13T21:35:57.610Z,21.87
2018-12-13T21:38:27.658Z,20.93
2018-12-13T21:40:56.442Z,20.27
2018-12-13T21:43:25.016Z,19.87
2018-12-13T21:45:53.587Z,20.80
2018-12-13T21:48:22.121Z,21.40
2018-12-13T21:50:50.651Z,21.63
2018-12-13T21:53:19.331Z,21.10
2018-12-13T21:56:01.006Z,20.27
2018-12-13T21:58:29.500Z,20.80
2018-12-13T22:00:57.991Z,20.87
2018-12-13T22:03:26.594Z,21.20
2018-12-13T22:06:01.737Z,21.87
2018-12-13T22:08:30.284Z,18.73
2018-12-13T22:10:58.787Z,19.57
2018-12-13T22:13:27.922Z,19.07
2018-12-13T22:15:56.449Z,18.00
2018-12-13T22:18:25.028Z,18.87
2018-12-13T22:20:53.536Z,18.83
2018-12-13T22:23:22.093Z,19.33
2018-12-13T22:25:50.593Z,18.93
2018-12-13T22:28:19.109Z,17.27
2018-12-13T22:30:47.743Z,18.47
2018-12-13T22:33:16.228Z,18.77
2018-12-13T22:35:45.019Z,19.57
2018-12-13T22:38:13.676Z,18.80
2018-12-13T22:40:42.213Z,18.53
2018-12-13T22:43:10.709Z,19.63
2018-12-13T22:45:45.515Z,19.20
2018-12-13T22:48:13.978Z,20.53
2018-12-13T22:50:42.446Z,22.37
2018-12-13T22:53:10.978Z,18.33
2018-12-13T22:55:39.477Z,19.60
2018-12-13T22:58:07.957Z,18.93
2018-12-13T23:00:42.298Z,20.40
2018-12-13T23:03:10.904Z,21.50
2018-12-13T23:05:39.382Z,21.50
2018-12-13T23:08:07.884Z,20.90
2018-12-13T23:10:36.408Z,21.63
2018-12-13T23:13:04.958Z,20.93
2018-12-13T23:15:33.578Z,21.30
2018-12-13T23:18:02.266Z,21.17
2018-12-13T23:20:30.777Z,25.63
2018-12-13T23:22:59.294Z,22.10
2018-12-13T23:25:27.812Z,21.63
2018-12-13T23:27:56.418Z,21.30
2018-12-13T23:30:24.938Z,20.80
2018-12-13T23:32:53.450Z,20.40
2018-12-13T23:35:21.945Z,21.60
2018-12-13T23:37:50.460Z,24.30
2018-12-13T23:40:18.946Z,23.33
2018-12-13T23:42:47.469Z,21.20
2018-12-13T23:45:16.012Z,23.10
2018-12-13T23:47:44.536Z,21.63
2018-12-13T23:50:13.155Z,22.33
2018-12-13T23:52:41.643Z,23.33
2018-12-13T23:55:10.109Z,21.67
2018-12-13T23:57:38.589Z,22.00
